Gillam Airport
CYGX : now visible

Airfield :











YOU CAN JOIN US ON...

 
LOGIN :

Register | Disclaimer

   EN    FR    IT 

 









Legend :    VFR   Marginal VFR   IFR   Intensive IFR   Very Intensive IFR
Visi :
Ceiling :
>= 8 km
>= 3000ft
5 to 8 km
1000 to 3000 ft
1500m to 5 km
500 to 1000 ft
800 to 1500m
200 to 500 ft
< 800m
< 200 ft
Symbols :   Thunderstorms  Fog  Heavy snow  Heavy precipitations  Wind > 20 kt







- Airport Elevation : 476 ft
- IATA code : YGX


CYGX - Gillam

CURRENT METAR :
  • 191400Z 04010G16KT 15SM BKN014 11/09 A2958 RMK ST7 SLP023 DENSITY ALT 600FT

EXPIRED METARs :
  • 191300Z 03012G17KT 15SM OVC011 11/10 A2956 RMK ST8 SLP014 DENSITY ALT 600FT
  • 191232Z 03012G18KT 15SM OVC010 11/09 A2955 RMK ST8 SLP012 DENSITY ALT 500FT
  • 191200Z 03013KT 6SM BR OVC005 11/10 A2954 RMK ST8 SLP009 DENSITY ALT 500FT

TAF TAF CYGX
Valid from the 19 at 13:00 until the 20 at 01:00 UTC


191238Z 1913/2001 03012KT P6SM OVC010
TEMPO 1913/1915 5SM BR OVC008
FM191500 04012KT P6SM BKN012
TEMPO 1915/1919 OVC008
FM191900 04010KT P6SM BKN030
TEMPO 1919/2001 P6SM -SHRA BKN020 RMK NXT FCST BY 191900Z
CZWG FIR / North America



MET'MAP, your aeronautical weather chart ! - Copyright ORBIFLY December 2007 - Disclaimer

ORBIFLY MET'MAP TEAM :

Programming & Development : Alexandra Zaïnal
Concept & Development : Baudouin d'Aumeries
Co-Development & Prog : Marc-Olivier Méhu
Technical & hardware support : Manuel Goepfert

Contact : metmap@orbifly.com




SOURCES & CREDITS :

   NOAA       Earth
Advisory